sensor_id;sensor_type;location;lat;lon;timestamp;P1;durP1;ratioP1;P2;durP2;ratioP2
27491;SDS011;14927;51.210;6.838;2024-02-21T00:00:53;22.50;;;9.90;;
27491;SDS011;14927;51.210;6.838;2024-02-21T00:03:38;28.73;;;9.07;;
27491;SDS011;14927;51.210;6.838;2024-02-21T00:06:23;23.38;;;9.13;;
27491;SDS011;14927;51.210;6.838;2024-02-21T00:09:07;23.50;;;9.35;;
27491;SDS011;14927;51.210;6.838;2024-02-21T00:11:53;25.92;;;9.88;;
27491;SDS011;14927;51.210;6.838;2024-02-21T00:14:38;20.23;;;8.35;;
27491;SDS011;14927;51.210;6.838;2024-02-21T00:17:22;22.55;;;8.90;;
27491;SDS011;14927;51.210;6.838;2024-02-21T00:20:07;29.88;;;9.02;;
27491;SDS011;14927;51.210;6.838;2024-02-21T00:22:52;17.15;;;7.97;;
27491;SDS011;14927;51.210;6.838;2024-02-21T00:25:39;22.42;;;9.60;;
27491;SDS011;14927;51.210;6.838;2024-02-21T00:28:23;26.17;;;10.05;;
27491;SDS011;14927;51.210;6.838;2024-02-21T00:31:08;21.65;;;8.68;;
27491;SDS011;14927;51.210;6.838;2024-02-21T00:33:57;19.88;;;8.68;;
27491;SDS011;14927;51.210;6.838;2024-02-21T00:36:42;26.43;;;7.83;;
27491;SDS011;14927;51.210;6.838;2024-02-21T00:39:27;19.83;;;8.85;;
27491;SDS011;14927;51.210;6.838;2024-02-21T00:42:11;19.88;;;8.07;;
27491;SDS011;14927;51.210;6.838;2024-02-21T00:44:56;22.85;;;9.27;;
27491;SDS011;14927;51.210;6.838;2024-02-21T00:47:42;25.23;;;9.07;;
27491;SDS011;14927;51.210;6.838;2024-02-21T00:50:26;22.52;;;9.13;;
27491;SDS011;14927;51.210;6.838;2024-02-21T00:53:11;22.23;;;8.80;;
27491;SDS011;14927;51.210;6.838;2024-02-21T00:55:56;24.38;;;9.15;;
27491;SDS011;14927;51.210;6.838;2024-02-21T00:58:41;28.70;;;9.40;;
27491;SDS011;14927;51.210;6.838;2024-02-21T01:01:25;23.15;;;8.82;;
27491;SDS011;14927;51.210;6.838;2024-02-21T01:04:10;21.13;;;8.70;;
27491;SDS011;14927;51.210;6.838;2024-02-21T01:06:54;22.67;;;9.05;;
27491;SDS011;14927;51.210;6.838;2024-02-21T01:09:39;23.60;;;9.40;;
27491;SDS011;14927;51.210;6.838;2024-02-21T01:12:24;23.48;;;8.75;;
27491;SDS011;14927;51.210;6.838;2024-02-21T01:15:08;21.98;;;9.65;;
27491;SDS011;14927;51.210;6.838;2024-02-21T01:17:54;25.67;;;9.75;;
27491;SDS011;14927;51.210;6.838;2024-02-21T01:20:39;19.55;;;9.07;;
27491;SDS011;14927;51.210;6.838;2024-02-21T01:23:23;24.92;;;8.30;;
27491;SDS011;14927;51.210;6.838;2024-02-21T01:26:08;17.00;;;7.28;;
27491;SDS011;14927;51.210;6.838;2024-02-21T01:28:56;22.20;;;9.05;;
27491;SDS011;14927;51.210;6.838;2024-02-21T01:31:41;18.98;;;7.63;;
27491;SDS011;14927;51.210;6.838;2024-02-21T01:34:25;24.13;;;8.40;;
27491;SDS011;14927;51.210;6.838;2024-02-21T01:37:10;27.00;;;9.05;;
27491;SDS011;14927;51.210;6.838;2024-02-21T01:39:55;19.48;;;8.07;;
27491;SDS011;14927;51.210;6.838;2024-02-21T01:42:39;22.88;;;8.18;;
27491;SDS011;14927;51.210;6.838;2024-02-21T01:45:24;25.75;;;8.50;;
27491;SDS011;14927;51.210;6.838;2024-02-21T01:48:09;21.80;;;8.75;;
27491;SDS011;14927;51.210;6.838;2024-02-21T01:50:54;25.23;;;9.45;;
27491;SDS011;14927;51.210;6.838;2024-02-21T01:53:40;24.80;;;9.68;;
27491;SDS011;14927;51.210;6.838;2024-02-21T01:56:30;27.65;;;8.60;;
27491;SDS011;14927;51.210;6.838;2024-02-21T01:59:15;21.83;;;7.97;;
27491;SDS011;14927;51.210;6.838;2024-02-21T02:02:00;24.25;;;8.75;;
27491;SDS011;14927;51.210;6.838;2024-02-21T02:04:46;21.45;;;7.97;;
27491;SDS011;14927;51.210;6.838;2024-02-21T02:07:30;17.08;;;7.38;;
27491;SDS011;14927;51.210;6.838;2024-02-21T02:10:15;23.20;;;8.20;;
27491;SDS011;14927;51.210;6.838;2024-02-21T02:13:09;32.25;;;8.85;;
27491;SDS011;14927;51.210;6.838;2024-02-21T02:15:54;20.50;;;8.20;;
27491;SDS011;14927;51.210;6.838;2024-02-21T02:18:38;20.60;;;7.70;;
27491;SDS011;14927;51.210;6.838;2024-02-21T02:25:23;25.33;;;7.53;;
27491;SDS011;14927;51.210;6.838;2024-02-21T02:28:08;26.55;;;8.38;;
27491;SDS011;14927;51.210;6.838;2024-02-21T02:30:53;22.05;;;7.97;;
27491;SDS011;14927;51.210;6.838;2024-02-21T02:33:38;19.17;;;7.55;;
27491;SDS011;14927;51.210;6.838;2024-02-21T02:36:22;22.95;;;8.10;;
27491;SDS011;14927;51.210;6.838;2024-02-21T02:39:07;18.85;;;7.50;;
27491;SDS011;14927;51.210;6.838;2024-02-21T02:41:52;22.58;;;8.10;;
27491;SDS011;14927;51.210;6.838;2024-02-21T02:44:37;21.60;;;7.72;;
27491;SDS011;14927;51.210;6.838;2024-02-21T02:47:22;19.75;;;8.00;;
27491;SDS011;14927;51.210;6.838;2024-02-21T02:50:07;22.48;;;7.65;;
27491;SDS011;14927;51.210;6.838;2024-02-21T02:52:53;22.63;;;7.60;;
27491;SDS011;14927;51.210;6.838;2024-02-21T02:55:39;20.55;;;7.00;;
27491;SDS011;14927;51.210;6.838;2024-02-21T02:58:23;23.00;;;8.00;;
27491;SDS011;14927;51.210;6.838;2024-02-21T03:01:08;21.98;;;8.13;;
27491;SDS011;14927;51.210;6.838;2024-02-21T03:03:53;19.40;;;7.50;;
27491;SDS011;14927;51.210;6.838;2024-02-21T03:06:38;18.27;;;8.55;;
27491;SDS011;14927;51.210;6.838;2024-02-21T03:09:23;21.77;;;8.27;;
27491;SDS011;14927;51.210;6.838;2024-02-21T03:12:08;19.13;;;7.22;;
27491;SDS011;14927;51.210;6.838;2024-02-21T03:14:53;19.08;;;7.55;;
27491;SDS011;14927;51.210;6.838;2024-02-21T03:17:37;16.60;;;7.40;;
27491;SDS011;14927;51.210;6.838;2024-02-21T03:20:22;17.00;;;7.30;;
27491;SDS011;14927;51.210;6.838;2024-02-21T03:23:08;22.13;;;8.00;;
27491;SDS011;14927;51.210;6.838;2024-02-21T03:25:52;15.93;;;6.85;;
27491;SDS011;14927;51.210;6.838;2024-02-21T03:28:37;18.27;;;7.43;;
27491;SDS011;14927;51.210;6.838;2024-02-21T03:31:23;20.33;;;7.20;;
27491;SDS011;14927;51.210;6.838;2024-02-21T03:34:09;18.95;;;7.07;;
27491;SDS011;14927;51.210;6.838;2024-02-21T03:36:54;23.13;;;6.65;;
27491;SDS011;14927;51.210;6.838;2024-02-21T03:39:39;21.52;;;7.18;;
27491;SDS011;14927;51.210;6.838;2024-02-21T03:42:24;15.90;;;6.93;;
27491;SDS011;14927;51.210;6.838;2024-02-21T03:45:09;19.27;;;6.90;;
27491;SDS011;14927;51.210;6.838;2024-02-21T03:47:54;21.08;;;6.70;;
27491;SDS011;14927;51.210;6.838;2024-02-21T03:50:39;18.70;;;7.07;;
27491;SDS011;14927;51.210;6.838;2024-02-21T03:53:24;17.42;;;7.10;;
27491;SDS011;14927;51.210;6.838;2024-02-21T03:56:08;18.83;;;6.35;;
27491;SDS011;14927;51.210;6.838;2024-02-21T03:58:53;14.95;;;6.15;;
27491;SDS011;14927;51.210;6.838;2024-02-21T04:01:38;19.63;;;6.82;;
27491;SDS011;14927;51.210;6.838;2024-02-21T04:04:22;15.02;;;5.85;;
27491;SDS011;14927;51.210;6.838;2024-02-21T04:07:07;16.45;;;6.72;;
27491;SDS011;14927;51.210;6.838;2024-02-21T04:09:52;16.77;;;6.43;;
27491;SDS011;14927;51.210;6.838;2024-02-21T04:12:37;18.83;;;6.30;;
27491;SDS011;14927;51.210;6.838;2024-02-21T04:15:22;20.77;;;7.03;;
27491;SDS011;14927;51.210;6.838;2024-02-21T04:18:06;20.13;;;5.75;;
27491;SDS011;14927;51.210;6.838;2024-02-21T04:20:51;16.33;;;5.88;;
27491;SDS011;14927;51.210;6.838;2024-02-21T04:23:36;13.18;;;5.63;;
27491;SDS011;14927;51.210;6.838;2024-02-21T04:26:20;16.70;;;6.18;;
27491;SDS011;14927;51.210;6.838;2024-02-21T04:29:05;16.55;;;4.95;;
27491;SDS011;14927;51.210;6.838;2024-02-21T04:31:49;14.65;;;5.38;;
27491;SDS011;14927;51.210;6.838;2024-02-21T04:34:34;21.77;;;6.30;;
27491;SDS011;14927;51.210;6.838;2024-02-21T04:37:19;13.35;;;5.22;;
27491;SDS011;14927;51.210;6.838;2024-02-21T04:40:04;16.80;;;6.13;;
27491;SDS011;14927;51.210;6.838;2024-02-21T04:42:50;14.43;;;5.53;;
27491;SDS011;14927;51.210;6.838;2024-02-21T04:45:37;13.95;;;5.88;;
27491;SDS011;14927;51.210;6.838;2024-02-21T04:48:21;15.40;;;5.90;;
27491;SDS011;14927;51.210;6.838;2024-02-21T04:51:06;16.85;;;5.60;;
27491;SDS011;14927;51.210;6.838;2024-02-21T04:53:51;13.95;;;5.80;;
27491;SDS011;14927;51.210;6.838;2024-02-21T04:56:35;17.48;;;5.05;;
27491;SDS011;14927;51.210;6.838;2024-02-21T04:59:20;13.80;;;5.18;;
27491;SDS011;14927;51.210;6.838;2024-02-21T05:02:04;17.10;;;4.90;;
27491;SDS011;14927;51.210;6.838;2024-02-21T05:04:49;13.38;;;5.43;;
27491;SDS011;14927;51.210;6.838;2024-02-21T05:07:34;15.45;;;5.32;;
27491;SDS011;14927;51.210;6.838;2024-02-21T05:10:19;11.98;;;5.00;;
27491;SDS011;14927;51.210;6.838;2024-02-21T05:13:04;16.67;;;5.80;;
27491;SDS011;14927;51.210;6.838;2024-02-21T05:15:49;15.07;;;5.55;;
27491;SDS011;14927;51.210;6.838;2024-02-21T05:18:34;13.65;;;5.43;;
27491;SDS011;14927;51.210;6.838;2024-02-21T05:21:18;12.35;;;5.45;;
27491;SDS011;14927;51.210;6.838;2024-02-21T05:24:03;16.45;;;5.20;;
27491;SDS011;14927;51.210;6.838;2024-02-21T05:26:48;12.73;;;4.78;;
27491;SDS011;14927;51.210;6.838;2024-02-21T05:29:33;15.98;;;5.00;;
27491;SDS011;14927;51.210;6.838;2024-02-21T05:32:18;15.10;;;5.07;;
27491;SDS011;14927;51.210;6.838;2024-02-21T05:35:02;12.32;;;5.15;;
27491;SDS011;14927;51.210;6.838;2024-02-21T05:37:47;18.05;;;5.88;;
27491;SDS011;14927;51.210;6.838;2024-02-21T05:40:36;17.17;;;5.32;;
27491;SDS011;14927;51.210;6.838;2024-02-21T05:43:20;12.13;;;5.15;;
27491;SDS011;14927;51.210;6.838;2024-02-21T05:46:05;12.65;;;4.97;;
27491;SDS011;14927;51.210;6.838;2024-02-21T05:48:50;12.75;;;4.80;;
27491;SDS011;14927;51.210;6.838;2024-02-21T05:51:34;18.25;;;5.90;;
27491;SDS011;14927;51.210;6.838;2024-02-21T05:54:26;13.77;;;5.07;;
27491;SDS011;14927;51.210;6.838;2024-02-21T05:57:11;13.07;;;5.38;;
27491;SDS011;14927;51.210;6.838;2024-02-21T05:59:56;13.35;;;5.40;;
27491;SDS011;14927;51.210;6.838;2024-02-21T06:02:40;15.68;;;5.97;;
27491;SDS011;14927;51.210;6.838;2024-02-21T06:05:25;14.55;;;5.32;;
27491;SDS011;14927;51.210;6.838;2024-02-21T06:08:09;14.43;;;5.22;;
27491;SDS011;14927;51.210;6.838;2024-02-21T06:10:54;11.13;;;4.85;;
27491;SDS011;14927;51.210;6.838;2024-02-21T06:13:39;14.70;;;5.63;;
27491;SDS011;14927;51.210;6.838;2024-02-21T06:16:24;14.57;;;5.15;;
27491;SDS011;14927;51.210;6.838;2024-02-21T06:19:08;12.65;;;4.85;;
27491;SDS011;14927;51.210;6.838;2024-02-21T06:21:53;11.85;;;5.10;;
27491;SDS011;14927;51.210;6.838;2024-02-21T06:24:38;13.65;;;5.57;;
27491;SDS011;14927;51.210;6.838;2024-02-21T06:27:23;13.80;;;4.57;;
27491;SDS011;14927;51.210;6.838;2024-02-21T06:30:08;13.00;;;4.78;;
27491;SDS011;14927;51.210;6.838;2024-02-21T06:32:53;13.82;;;4.72;;
27491;SDS011;14927;51.210;6.838;2024-02-21T06:35:39;11.02;;;4.40;;
27491;SDS011;14927;51.210;6.838;2024-02-21T06:38:26;12.77;;;5.15;;
27491;SDS011;14927;51.210;6.838;2024-02-21T06:41:15;16.42;;;4.25;;
27491;SDS011;14927;51.210;6.838;2024-02-21T06:44:03;14.00;;;4.57;;
27491;SDS011;14927;51.210;6.838;2024-02-21T06:46:48;16.02;;;4.75;;
27491;SDS011;14927;51.210;6.838;2024-02-21T06:49:33;13.50;;;6.15;;
27491;SDS011;14927;51.210;6.838;2024-02-21T06:52:21;16.52;;;6.05;;
27491;SDS011;14927;51.210;6.838;2024-02-21T06:55:09;13.77;;;4.95;;
27491;SDS011;14927;51.210;6.838;2024-02-21T06:57:56;14.38;;;4.78;;
27491;SDS011;14927;51.210;6.838;2024-02-21T07:00:44;14.65;;;4.70;;
27491;SDS011;14927;51.210;6.838;2024-02-21T07:03:31;11.45;;;5.18;;
27491;SDS011;14927;51.210;6.838;2024-02-21T07:06:15;12.77;;;5.00;;
27491;SDS011;14927;51.210;6.838;2024-02-21T07:09:00;17.77;;;5.57;;
27491;SDS011;14927;51.210;6.838;2024-02-21T07:11:45;17.27;;;5.45;;
27491;SDS011;14927;51.210;6.838;2024-02-21T07:14:30;14.35;;;4.95;;
27491;SDS011;14927;51.210;6.838;2024-02-21T07:17:16;9.55;;;4.53;;
27491;SDS011;14927;51.210;6.838;2024-02-21T07:20:01;15.50;;;4.70;;
27491;SDS011;14927;51.210;6.838;2024-02-21T07:22:46;11.68;;;4.07;;
27491;SDS011;14927;51.210;6.838;2024-02-21T07:25:30;9.07;;;3.70;;
27491;SDS011;14927;51.210;6.838;2024-02-21T07:28:15;9.68;;;3.72;;
27491;SDS011;14927;51.210;6.838;2024-02-21T07:31:00;8.27;;;3.25;;
27491;SDS011;14927;51.210;6.838;2024-02-21T07:33:45;8.45;;;3.17;;
27491;SDS011;14927;51.210;6.838;2024-02-21T07:36:30;10.43;;;3.50;;
27491;SDS011;14927;51.210;6.838;2024-02-21T07:39:23;9.95;;;3.60;;
27491;SDS011;14927;51.210;6.838;2024-02-21T07:42:08;8.15;;;3.55;;
27491;SDS011;14927;51.210;6.838;2024-02-21T07:44:53;9.88;;;3.85;;
27491;SDS011;14927;51.210;6.838;2024-02-21T07:47:37;9.73;;;3.08;;
27491;SDS011;14927;51.210;6.838;2024-02-21T07:50:25;12.25;;;3.83;;
27491;SDS011;14927;51.210;6.838;2024-02-21T07:53:10;13.25;;;4.10;;
27491;SDS011;14927;51.210;6.838;2024-02-21T07:56:18;12.52;;;3.85;;
27491;SDS011;14927;51.210;6.838;2024-02-21T07:59:02;12.23;;;4.15;;
27491;SDS011;14927;51.210;6.838;2024-02-21T08:01:57;10.93;;;3.25;;
27491;SDS011;14927;51.210;6.838;2024-02-21T08:05:05;12.57;;;4.13;;
27491;SDS011;14927;51.210;6.838;2024-02-21T08:07:56;12.05;;;4.10;;
27491;SDS011;14927;51.210;6.838;2024-02-21T08:10:40;12.50;;;4.60;;
27491;SDS011;14927;51.210;6.838;2024-02-21T08:13:28;11.13;;;3.60;;
27491;SDS011;14927;51.210;6.838;2024-02-21T08:16:15;14.15;;;3.60;;
27491;SDS011;14927;51.210;6.838;2024-02-21T08:19:00;13.65;;;4.00;;
27491;SDS011;14927;51.210;6.838;2024-02-21T08:22:02;11.90;;;3.42;;
27491;SDS011;14927;51.210;6.838;2024-02-21T08:25:03;14.43;;;3.95;;
27491;SDS011;14927;51.210;6.838;2024-02-21T08:27:49;14.85;;;4.03;;
27491;SDS011;14927;51.210;6.838;2024-02-21T08:30:35;9.95;;;3.72;;
27491;SDS011;14927;51.210;6.838;2024-02-21T08:33:22;14.35;;;4.10;;
27491;SDS011;14927;51.210;6.838;2024-02-21T08:36:16;14.20;;;4.80;;
27491;SDS011;14927;51.210;6.838;2024-02-21T08:39:04;18.30;;;4.85;;
27491;SDS011;14927;51.210;6.838;2024-02-21T08:41:48;13.07;;;4.38;;
27491;SDS011;14927;51.210;6.838;2024-02-21T08:44:34;15.70;;;4.20;;
27491;SDS011;14927;51.210;6.838;2024-02-21T08:47:19;16.90;;;4.32;;
27491;SDS011;14927;51.210;6.838;2024-02-21T08:50:04;12.07;;;3.97;;
27491;SDS011;14927;51.210;6.838;2024-02-21T08:52:55;12.65;;;4.47;;
27491;SDS011;14927;51.210;6.838;2024-02-21T08:55:39;11.35;;;4.20;;
27491;SDS011;14927;51.210;6.838;2024-02-21T08:58:25;12.18;;;4.25;;
27491;SDS011;14927;51.210;6.838;2024-02-21T09:01:15;13.18;;;4.75;;
27491;SDS011;14927;51.210;6.838;2024-02-21T09:03:59;16.50;;;4.40;;
27491;SDS011;14927;51.210;6.838;2024-02-21T09:06:44;19.40;;;5.35;;
27491;SDS011;14927;51.210;6.838;2024-02-21T09:09:30;15.15;;;4.10;;
27491;SDS011;14927;51.210;6.838;2024-02-21T09:12:16;13.88;;;4.93;;
27491;SDS011;14927;51.210;6.838;2024-02-21T09:15:01;14.98;;;4.05;;
27491;SDS011;14927;51.210;6.838;2024-02-21T09:17:47;13.45;;;4.72;;
27491;SDS011;14927;51.210;6.838;2024-02-21T09:20:32;15.00;;;4.30;;
27491;SDS011;14927;51.210;6.838;2024-02-21T09:23:19;13.40;;;4.80;;
27491;SDS011;14927;51.210;6.838;2024-02-21T09:26:06;14.52;;;4.63;;
27491;SDS011;14927;51.210;6.838;2024-02-21T09:28:57;17.48;;;4.78;;
27491;SDS011;14927;51.210;6.838;2024-02-21T09:31:42;17.45;;;4.93;;
27491;SDS011;14927;51.210;6.838;2024-02-21T09:34:26;18.52;;;4.60;;
27491;SDS011;14927;51.210;6.838;2024-02-21T09:37:13;15.05;;;4.50;;
27491;SDS011;14927;51.210;6.838;2024-02-21T09:40:05;16.17;;;4.50;;
27491;SDS011;14927;51.210;6.838;2024-02-21T09:42:50;14.55;;;4.63;;
27491;SDS011;14927;51.210;6.838;2024-02-21T09:45:54;14.38;;;4.47;;
27491;SDS011;14927;51.210;6.838;2024-02-21T09:48:48;11.10;;;4.30;;
27491;SDS011;14927;51.210;6.838;2024-02-21T09:51:49;11.57;;;4.43;;
27491;SDS011;14927;51.210;6.838;2024-02-21T09:54:41;12.85;;;4.28;;
27491;SDS011;14927;51.210;6.838;2024-02-21T09:57:28;11.80;;;3.80;;
27491;SDS011;14927;51.210;6.838;2024-02-21T10:00:12;11.90;;;4.20;;
27491;SDS011;14927;51.210;6.838;2024-02-21T10:03:04;11.05;;;3.83;;
27491;SDS011;14927;51.210;6.838;2024-02-21T10:05:51;9.95;;;4.28;;
27491;SDS011;14927;51.210;6.838;2024-02-21T10:08:38;11.23;;;4.00;;
27491;SDS011;14927;51.210;6.838;2024-02-21T10:11:23;15.48;;;4.00;;
27491;SDS011;14927;51.210;6.838;2024-02-21T10:14:09;11.15;;;3.33;;
27491;SDS011;14927;51.210;6.838;2024-02-21T10:16:56;10.38;;;3.88;;
27491;SDS011;14927;51.210;6.838;2024-02-21T10:19:53;10.45;;;3.47;;
27491;SDS011;14927;51.210;6.838;2024-02-21T10:22:37;9.82;;;3.60;;
27491;SDS011;14927;51.210;6.838;2024-02-21T10:25:23;10.07;;;3.20;;
27491;SDS011;14927;51.210;6.838;2024-02-21T10:28:08;8.55;;;3.17;;
27491;SDS011;14927;51.210;6.838;2024-02-21T10:30:52;9.07;;;2.50;;
27491;SDS011;14927;51.210;6.838;2024-02-21T10:33:37;7.70;;;2.88;;
27491;SDS011;14927;51.210;6.838;2024-02-21T10:36:23;9.05;;;2.72;;
27491;SDS011;14927;51.210;6.838;2024-02-21T10:39:11;7.15;;;2.67;;
27491;SDS011;14927;51.210;6.838;2024-02-21T10:41:56;11.05;;;3.53;;
27491;SDS011;14927;51.210;6.838;2024-02-21T10:44:50;7.10;;;2.75;;
27491;SDS011;14927;51.210;6.838;2024-02-21T10:47:35;10.18;;;3.15;;
27491;SDS011;14927;51.210;6.838;2024-02-21T10:50:24;6.03;;;2.55;;
27491;SDS011;14927;51.210;6.838;2024-02-21T10:53:20;11.23;;;2.67;;
27491;SDS011;14927;51.210;6.838;2024-02-21T10:56:26;9.80;;;2.70;;
27491;SDS011;14927;51.210;6.838;2024-02-21T10:59:14;6.18;;;3.30;;
27491;SDS011;14927;51.210;6.838;2024-02-21T11:02:18;9.63;;;2.70;;
27491;SDS011;14927;51.210;6.838;2024-02-21T11:06:03;6.22;;;2.75;;
27491;SDS011;14927;51.210;6.838;2024-02-21T11:11:52;11.00;;;3.72;;
27491;SDS011;14927;51.210;6.838;2024-02-21T11:14:37;11.73;;;2.78;;
27491;SDS011;14927;51.210;6.838;2024-02-21T11:17:23;12.18;;;3.35;;
27491;SDS011;14927;51.210;6.838;2024-02-21T11:20:11;11.05;;;3.35;;
27491;SDS011;14927;51.210;6.838;2024-02-21T11:26:37;13.18;;;3.60;;
27491;SDS011;14927;51.210;6.838;2024-02-21T11:29:24;13.75;;;4.10;;
27491;SDS011;14927;51.210;6.838;2024-02-21T11:32:09;17.92;;;3.53;;
27491;SDS011;14927;51.210;6.838;2024-02-21T11:34:59;10.40;;;3.65;;
27491;SDS011;14927;51.210;6.838;2024-02-21T11:37:47;8.18;;;3.45;;
27491;SDS011;14927;51.210;6.838;2024-02-21T11:40:33;10.70;;;3.75;;
27491;SDS011;14927;51.210;6.838;2024-02-21T11:43:17;11.40;;;3.28;;
27491;SDS011;14927;51.210;6.838;2024-02-21T11:46:02;10.52;;;3.40;;
27491;SDS011;14927;51.210;6.838;2024-02-21T11:48:48;13.45;;;3.28;;
27491;SDS011;14927;51.210;6.838;2024-02-21T11:51:34;9.27;;;3.40;;
27491;SDS011;14927;51.210;6.838;2024-02-21T11:54:18;10.63;;;2.83;;
27491;SDS011;14927;51.210;6.838;2024-02-21T11:57:03;7.60;;;3.15;;
27491;SDS011;14927;51.210;6.838;2024-02-21T11:59:48;10.40;;;3.03;;
27491;SDS011;14927;51.210;6.838;2024-02-21T12:02:33;9.25;;;2.83;;
27491;SDS011;14927;51.210;6.838;2024-02-21T12:05:18;10.77;;;3.28;;
27491;SDS011;14927;51.210;6.838;2024-02-21T12:08:04;8.50;;;2.90;;
27491;SDS011;14927;51.210;6.838;2024-02-21T12:10:51;13.50;;;3.33;;
27491;SDS011;14927;51.210;6.838;2024-02-21T12:13:36;8.18;;;3.40;;
27491;SDS011;14927;51.210;6.838;2024-02-21T12:16:23;9.00;;;2.75;;
27491;SDS011;14927;51.210;6.838;2024-02-21T12:20:09;7.28;;;2.92;;
27491;SDS011;14927;51.210;6.838;2024-02-21T12:22:55;11.20;;;2.83;;
27491;SDS011;14927;51.210;6.838;2024-02-21T12:25:40;9.00;;;2.55;;
27491;SDS011;14927;51.210;6.838;2024-02-21T12:28:24;16.35;;;3.13;;
27491;SDS011;14927;51.210;6.838;2024-02-21T12:31:10;13.77;;;2.67;;
27491;SDS011;14927;51.210;6.838;2024-02-21T12:33:54;7.30;;;2.45;;
27491;SDS011;14927;51.210;6.838;2024-02-21T12:36:43;13.30;;;2.65;;
27491;SDS011;14927;51.210;6.838;2024-02-21T12:39:32;7.70;;;2.50;;
27491;SDS011;14927;51.210;6.838;2024-02-21T12:42:16;8.43;;;2.58;;
27491;SDS011;14927;51.210;6.838;2024-02-21T12:45:04;9.80;;;3.00;;
27491;SDS011;14927;51.210;6.838;2024-02-21T12:47:49;10.30;;;2.88;;
27491;SDS011;14927;51.210;6.838;2024-02-21T12:50:34;8.95;;;2.38;;
27491;SDS011;14927;51.210;6.838;2024-02-21T12:53:19;7.32;;;2.40;;
27491;SDS011;14927;51.210;6.838;2024-02-21T12:56:07;7.38;;;2.70;;
27491;SDS011;14927;51.210;6.838;2024-02-21T12:58:52;10.48;;;2.80;;
27491;SDS011;14927;51.210;6.838;2024-02-21T13:01:37;8.32;;;2.80;;
27491;SDS011;14927;51.210;6.838;2024-02-21T13:04:22;8.68;;;2.80;;
27491;SDS011;14927;51.210;6.838;2024-02-21T13:07:06;9.43;;;2.90;;
27491;SDS011;14927;51.210;6.838;2024-02-21T13:09:52;9.20;;;2.10;;
27491;SDS011;14927;51.210;6.838;2024-02-21T13:12:37;8.52;;;2.40;;
27491;SDS011;14927;51.210;6.838;2024-02-21T13:15:23;6.47;;;2.55;;
27491;SDS011;14927;51.210;6.838;2024-02-21T13:18:27;7.65;;;2.45;;
27491;SDS011;14927;51.210;6.838;2024-02-21T13:21:12;6.43;;;2.30;;
27491;SDS011;14927;51.210;6.838;2024-02-21T13:24:22;7.53;;;2.15;;
27491;SDS011;14927;51.210;6.838;2024-02-21T13:27:10;11.23;;;2.60;;
27491;SDS011;14927;51.210;6.838;2024-02-21T13:29:56;8.30;;;2.45;;
27491;SDS011;14927;51.210;6.838;2024-02-21T13:32:42;6.70;;;2.05;;
27491;SDS011;14927;51.210;6.838;2024-02-21T13:35:27;8.73;;;2.45;;
27491;SDS011;14927;51.210;6.838;2024-02-21T13:38:11;9.45;;;3.00;;
27491;SDS011;14927;51.210;6.838;2024-02-21T13:40:56;6.85;;;2.55;;
27491;SDS011;14927;51.210;6.838;2024-02-21T13:43:40;10.63;;;2.50;;
27491;SDS011;14927;51.210;6.838;2024-02-21T13:46:25;6.40;;;2.13;;
27491;SDS011;14927;51.210;6.838;2024-02-21T13:49:10;11.88;;;2.50;;
27491;SDS011;14927;51.210;6.838;2024-02-21T13:51:55;8.07;;;2.30;;
27491;SDS011;14927;51.210;6.838;2024-02-21T13:54:39;14.10;;;3.15;;
27491;SDS011;14927;51.210;6.838;2024-02-21T13:57:25;8.55;;;2.63;;
27491;SDS011;14927;51.210;6.838;2024-02-21T14:00:10;9.75;;;2.65;;
27491;SDS011;14927;51.210;6.838;2024-02-21T14:02:55;10.88;;;2.88;;
27491;SDS011;14927;51.210;6.838;2024-02-21T14:05:41;10.80;;;2.72;;
27491;SDS011;14927;51.210;6.838;2024-02-21T14:08:26;13.55;;;2.67;;
27491;SDS011;14927;51.210;6.838;2024-02-21T14:11:10;8.38;;;2.78;;
27491;SDS011;14927;51.210;6.838;2024-02-21T14:13:55;8.95;;;2.30;;
27491;SDS011;14927;51.210;6.838;2024-02-21T14:16:41;7.07;;;2.38;;
27491;SDS011;14927;51.210;6.838;2024-02-21T14:19:25;9.55;;;2.78;;
27491;SDS011;14927;51.210;6.838;2024-02-21T14:22:10;22.15;;;3.03;;
27491;SDS011;14927;51.210;6.838;2024-02-21T14:24:55;11.98;;;3.17;;
27491;SDS011;14927;51.210;6.838;2024-02-21T14:27:40;7.97;;;2.80;;
27491;SDS011;14927;51.210;6.838;2024-02-21T14:30:24;9.98;;;3.10;;
27491;SDS011;14927;51.210;6.838;2024-02-21T14:33:09;10.40;;;2.65;;
27491;SDS011;14927;51.210;6.838;2024-02-21T14:35:54;6.68;;;2.17;;
27491;SDS011;14927;51.210;6.838;2024-02-21T14:38:38;6.75;;;2.17;;
27491;SDS011;14927;51.210;6.838;2024-02-21T14:41:23;6.72;;;2.08;;
27491;SDS011;14927;51.210;6.838;2024-02-21T14:44:08;6.30;;;1.75;;
27491;SDS011;14927;51.210;6.838;2024-02-21T14:46:53;6.30;;;2.28;;
27491;SDS011;14927;51.210;6.838;2024-02-21T14:49:38;7.07;;;2.22;;
27491;SDS011;14927;51.210;6.838;2024-02-21T14:52:22;7.68;;;2.40;;
27491;SDS011;14927;51.210;6.838;2024-02-21T14:55:08;8.00;;;2.80;;
27491;SDS011;14927;51.210;6.838;2024-02-21T14:57:53;6.22;;;2.00;;
27491;SDS011;14927;51.210;6.838;2024-02-21T15:00:37;9.18;;;2.15;;
27491;SDS011;14927;51.210;6.838;2024-02-21T15:03:25;7.60;;;2.20;;
27491;SDS011;14927;51.210;6.838;2024-02-21T15:06:11;8.25;;;2.75;;
27491;SDS011;14927;51.210;6.838;2024-02-21T15:08:55;5.88;;;2.22;;
27491;SDS011;14927;51.210;6.838;2024-02-21T15:11:41;7.72;;;2.10;;
27491;SDS011;14927;51.210;6.838;2024-02-21T15:14:26;8.00;;;2.55;;
27491;SDS011;14927;51.210;6.838;2024-02-21T15:17:12;11.60;;;2.70;;
27491;SDS011;14927;51.210;6.838;2024-02-21T15:19:56;6.57;;;2.25;;
27491;SDS011;14927;51.210;6.838;2024-02-21T15:22:42;10.57;;;2.72;;
27491;SDS011;14927;51.210;6.838;2024-02-21T15:25:27;8.32;;;3.05;;
27491;SDS011;14927;51.210;6.838;2024-02-21T15:28:14;5.97;;;2.20;;
27491;SDS011;14927;51.210;6.838;2024-02-21T15:30:58;7.25;;;2.20;;
27491;SDS011;14927;51.210;6.838;2024-02-21T15:33:43;6.88;;;2.63;;
27491;SDS011;14927;51.210;6.838;2024-02-21T15:36:28;10.80;;;3.10;;
27491;SDS011;14927;51.210;6.838;2024-02-21T15:39:12;10.95;;;3.15;;
27491;SDS011;14927;51.210;6.838;2024-02-21T15:42:17;6.97;;;2.30;;
27491;SDS011;14927;51.210;6.838;2024-02-21T15:45:02;10.40;;;2.70;;
27491;SDS011;14927;51.210;6.838;2024-02-21T15:47:50;6.85;;;2.25;;
27491;SDS011;14927;51.210;6.838;2024-02-21T15:50:38;9.27;;;2.45;;
27491;SDS011;14927;51.210;6.838;2024-02-21T15:53:23;5.45;;;2.08;;
27491;SDS011;14927;51.210;6.838;2024-02-21T15:56:07;7.30;;;2.58;;
27491;SDS011;14927;51.210;6.838;2024-02-21T15:58:52;6.00;;;2.50;;
27491;SDS011;14927;51.210;6.838;2024-02-21T16:01:38;7.32;;;2.60;;
27491;SDS011;14927;51.210;6.838;2024-02-21T16:04:24;9.93;;;2.95;;
27491;SDS011;14927;51.210;6.838;2024-02-21T16:07:08;9.63;;;2.40;;
27491;SDS011;14927;51.210;6.838;2024-02-21T16:09:53;7.60;;;2.42;;
27491;SDS011;14927;51.210;6.838;2024-02-21T16:12:39;10.57;;;2.58;;
27491;SDS011;14927;51.210;6.838;2024-02-21T16:15:24;9.13;;;2.65;;
27491;SDS011;14927;51.210;6.838;2024-02-21T16:18:09;10.52;;;2.10;;
27491;SDS011;14927;51.210;6.838;2024-02-21T16:20:54;6.50;;;1.98;;
27491;SDS011;14927;51.210;6.838;2024-02-21T16:23:39;9.30;;;1.88;;
27491;SDS011;14927;51.210;6.838;2024-02-21T16:26:23;7.35;;;2.10;;
27491;SDS011;14927;51.210;6.838;2024-02-21T16:29:08;6.07;;;2.03;;
27491;SDS011;14927;51.210;6.838;2024-02-21T16:31:52;5.75;;;2.45;;
27491;SDS011;14927;51.210;6.838;2024-02-21T16:34:37;3.38;;;1.77;;
27491;SDS011;14927;51.210;6.838;2024-02-21T16:37:22;7.10;;;2.28;;
27491;SDS011;14927;51.210;6.838;2024-02-21T16:40:07;6.72;;;1.98;;
27491;SDS011;14927;51.210;6.838;2024-02-21T16:42:52;7.28;;;2.05;;